Time;durP1;ratioP1;P1;durP2;ratioP2;P2;SDS_P1;SDS_P2;PMS_P1;PMS_P2;Temp;Humidity;BMP_temperature;BMP_pressure;BME280_temperature;BME280_humidity;BME280_pressure;Samples;Min_cycle;Max_cycle;Signal;HPM_P1;HPM_P2
2023/09/01 00:01:03;;;;;;;1.60;1.50;;;12.40;99.90;;;;;;5102840;28;20265;-66
2023/09/01 00:03:30;;;;;;;1.50;1.40;;;12.30;99.90;;;;;;5067802;28;20218;-66
2023/09/01 00:05:58;;;;;;;2.67;1.40;;;12.40;99.90;;;;;;5067556;28;20306;-66
2023/09/01 00:08:25;;;;;;;1.50;1.43;;;12.40;99.90;;;;;;5067262;28;20235;-66
2023/09/01 00:10:52;;;;;;;1.67;1.57;;;12.40;99.90;;;;;;5067745;28;20207;-66
2023/09/01 00:13:19;;;;;;;1.50;1.40;;;12.40;99.90;;;;;;5067251;28;20207;-66
2023/09/01 00:15:47;;;;;;;2.77;1.73;;;12.40;99.90;;;;;;5067287;28;20208;-66
2023/09/01 00:18:14;;;;;;;2.50;1.40;;;12.30;99.90;;;;;;5083985;28;20329;-66
2023/09/01 00:20:41;;;;;;;1.77;1.20;;;12.40;99.90;;;;;;5087227;28;20298;-67
2023/09/01 00:23:07;;;;;;;1.53;1.47;;;12.40;99.90;;;;;;5069793;28;20295;-66
2023/09/01 00:25:34;;;;;;;1.70;1.60;;;12.30;99.90;;;;;;5081386;28;20286;-66
2023/09/01 00:28:01;;;;;;;2.67;1.53;;;12.30;99.90;;;;;;5086807;28;20983;-66
2023/09/01 00:30:29;;;;;;;3.17;1.80;;;12.30;99.90;;;;;;5081996;28;20227;-66
2023/09/01 00:32:57;;;;;;;2.00;1.73;;;12.30;99.90;;;;;;5067644;28;20199;-66
2023/09/01 00:35:24;;;;;;;2.13;1.60;;;12.20;99.90;;;;;;5066971;28;20241;-66
2023/09/01 00:37:51;;;;;;;2.13;1.73;;;12.20;99.90;;;;;;5066558;28;20204;-66
2023/09/01 00:40:18;;;;;;;2.10;1.60;;;12.30;99.90;;;;;;5066739;28;20294;-66
2023/09/01 00:42:48;;;;;;;2.37;1.67;;;12.30;99.90;;;;;;5066921;28;20792;-66
2023/09/01 00:45:15;;;;;;;1.90;1.80;;;12.20;99.90;;;;;;5067684;28;20261;-66
2023/09/01 00:47:42;;;;;;;3.13;1.80;;;12.20;99.90;;;;;;5099101;28;20313;-66
2023/09/01 00:50:13;;;;;;;1.90;1.50;;;12.30;99.90;;;;;;5106655;28;20324;-66
2023/09/01 00:52:39;;;;;;;2.07;1.87;;;12.20;99.90;;;;;;5098473;28;20209;-66
2023/09/01 00:55:07;;;;;;;1.93;1.83;;;12.10;99.90;;;;;;5103242;28;20286;-66
2023/09/01 00:57:34;;;;;;;2.37;1.73;;;12.20;99.90;;;;;;5102911;28;20295;-66
2023/09/01 01:00:01;;;;;;;1.87;1.77;;;12.20;99.90;;;;;;5085967;28;21149;-66
2023/09/01 01:02:28;;;;;;;2.43;1.87;;;12.20;99.90;;;;;;5070040;28;20219;-66
2023/09/01 01:04:56;;;;;;;2.47;1.67;;;12.10;99.90;;;;;;5066333;28;20302;-66
2023/09/01 01:07:31;;;;;;;2.07;1.90;;;12.20;99.90;;;;;;5066034;28;20297;-66
2023/09/01 01:10:05;;;;;;;1.80;1.70;;;12.10;99.90;;;;;;5065827;28;20234;-66
2023/09/01 01:12:40;;;;;;;1.77;1.67;;;12.10;99.90;;;;;;5072633;28;20187;-66
2023/09/01 01:15:11;;;;;;;2.20;2.10;;;12.10;99.90;;;;;;5086175;28;20729;-66
2023/09/01 01:17:40;;;;;;;1.80;1.70;;;12.00;99.90;;;;;;5080491;28;20223;-66
2023/09/01 01:20:20;;;;;;;2.00;1.90;;;12.00;99.90;;;;;;5086310;28;20215;-66
2023/09/01 01:22:50;;;;;;;1.80;1.70;;;12.00;99.90;;;;;;5077742;28;20303;-66
2023/09/01 01:25:20;;;;;;;3.10;2.10;;;12.00;99.90;;;;;;5065299;28;20207;-66
2023/09/01 01:27:47;;;;;;;2.40;2.00;;;12.00;99.90;;;;;;5066038;28;20239;-66
2023/09/01 01:30:15;;;;;;;4.10;1.97;;;12.00;99.90;;;;;;5065385;28;20259;-66
2023/09/01 01:32:43;;;;;;;2.43;1.93;;;12.00;99.90;;;;;;5065553;28;20257;-66
2023/09/01 01:35:18;;;;;;;2.83;2.03;;;12.00;99.90;;;;;;5065538;28;20290;-66
2023/09/01 01:37:53;;;;;;;2.30;2.10;;;11.90;99.90;;;;;;5065445;28;20206;-66
2023/09/01 01:40:24;;;;;;;2.70;2.40;;;11.90;99.90;;;;;;5067284;28;20276;-66
2023/09/01 01:42:54;;;;;;;2.40;2.30;;;11.90;99.90;;;;;;5084235;28;20190;-66
2023/09/01 01:45:23;;;;;;;3.43;2.13;;;11.90;99.90;;;;;;5085408;28;20307;-66
2023/09/01 01:47:52;;;;;;;3.93;2.17;;;12.00;99.90;;;;;;5085786;28;20306;-66
2023/09/01 01:50:19;;;;;;;3.47;2.30;;;12.10;99.90;;;;;;5091234;28;20715;-66
2023/09/01 01:52:46;;;;;;;2.30;2.20;;;12.00;99.90;;;;;;5071766;28;20298;-66
2023/09/01 01:55:13;;;;;;;2.63;1.90;;;12.10;99.90;;;;;;5085945;28;20211;-66
2023/09/01 01:57:41;;;;;;;2.17;2.00;;;12.10;99.90;;;;;;5085394;28;20206;-66
2023/09/01 02:00:14;;;;;;;2.40;2.30;;;12.10;99.90;;;;;;5085175;28;20274;-66
2023/09/01 02:02:42;;;;;;;2.77;2.00;;;12.10;99.90;;;;;;5084980;28;20198;-66
2023/09/01 02:05:10;;;;;;;2.67;1.90;;;12.10;99.90;;;;;;5085742;28;20213;-66
2023/09/01 02:07:37;;;;;;;2.27;1.97;;;12.10;99.90;;;;;;5085315;28;20256;-66
2023/09/01 02:10:06;;;;;;;2.53;2.20;;;12.10;99.90;;;;;;5085572;28;20911;-66
2023/09/01 02:12:33;;;;;;;2.27;2.03;;;12.10;99.90;;;;;;5085093;28;20206;-66
2023/09/01 02:15:01;;;;;;;3.53;2.20;;;12.00;99.90;;;;;;5070236;28;20243;-66
2023/09/01 02:17:28;;;;;;;2.37;2.17;;;12.00;99.90;;;;;;5091782;28;20982;-66
2023/09/01 02:19:56;;;;;;;2.20;2.10;;;12.00;99.90;;;;;;5105836;28;20638;-66
2023/09/01 02:22:24;;;;;;;2.30;2.13;;;12.10;99.90;;;;;;5101785;28;20274;-66
2023/09/01 02:24:51;;;;;;;3.27;2.13;;;12.10;99.90;;;;;;5084773;28;20737;-67
2023/09/01 02:27:17;;;;;;;2.07;1.97;;;12.20;99.90;;;;;;5085332;28;20302;-66
2023/09/01 02:29:44;;;;;;;3.50;2.20;;;12.20;99.90;;;;;;5085231;28;21092;-66
2023/09/01 02:32:13;;;;;;;3.40;2.40;;;12.20;99.90;;;;;;5084957;28;21045;-66
2023/09/01 02:34:39;;;;;;;2.37;2.17;;;12.20;99.90;;;;;;5084700;28;20230;-66
2023/09/01 02:37:06;;;;;;;4.63;2.40;;;12.10;99.90;;;;;;5087625;28;20301;-67
2023/09/01 02:39:33;;;;;;;2.80;2.50;;;12.10;99.90;;;;;;5076636;28;20211;-66
2023/09/01 02:42:01;;;;;;;2.60;2.40;;;12.00;99.90;;;;;;5068772;28;20669;-66
2023/09/01 02:44:28;;;;;;;3.17;2.40;;;12.00;99.90;;;;;;5069096;28;20294;-66
2023/09/01 02:46:54;;;;;;;2.83;2.40;;;11.90;99.90;;;;;;5074289;28;20447;-67
2023/09/01 02:49:23;;;;;;;2.97;2.53;;;11.90;99.90;;;;;;5089078;28;20333;-66
2023/09/01 02:51:50;;;;;;;3.27;2.40;;;11.90;99.90;;;;;;5081172;28;20264;-66
2023/09/01 02:54:16;;;;;;;2.57;2.37;;;12.00;99.90;;;;;;5087968;28;20310;-66
2023/09/01 02:56:43;;;;;;;2.77;2.57;;;12.00;99.90;;;;;;5088724;28;20238;-66
2023/09/01 02:59:10;;;;;;;3.73;2.40;;;12.10;99.90;;;;;;5088703;28;20329;-66
2023/09/01 03:01:37;;;;;;;2.93;2.63;;;12.10;99.90;;;;;;5078452;28;20235;-66
2023/09/01 03:04:06;;;;;;;3.23;2.10;;;12.20;99.90;;;;;;5084801;28;20692;-66
2023/09/01 03:06:35;;;;;;;2.43;2.30;;;12.30;99.90;;;;;;5089028;28;20673;-66
2023/09/01 03:09:03;;;;;;;3.17;2.67;;;12.30;99.90;;;;;;5088669;28;20680;-66
2023/09/01 03:11:30;;;;;;;2.67;2.07;;;12.30;99.90;;;;;;5088732;28;20233;-66
2023/09/01 03:13:57;;;;;;;2.63;2.30;;;12.40;99.90;;;;;;5088519;28;20217;-66
2023/09/01 03:16:24;;;;;;;2.30;2.10;;;12.40;99.90;;;;;;5089873;28;20341;-66
2023/09/01 03:18:57;;;;;;;2.03;1.93;;;12.50;99.90;;;;;;5108740;28;20580;-66
2023/09/01 03:21:24;;;;;;;3.00;2.67;;;12.50;99.90;;;;;;5108491;28;20198;-66
2023/09/01 03:23:52;;;;;;;2.20;2.03;;;12.50;99.90;;;;;;5093880;28;20661;-66
2023/09/01 03:26:19;;;;;;;2.50;2.30;;;12.50;99.90;;;;;;5087964;28;20207;-66
2023/09/01 03:28:46;;;;;;;3.90;2.43;;;12.50;99.90;;;;;;5087906;28;20236;-66
2023/09/01 03:31:13;;;;;;;4.03;2.40;;;12.40;99.90;;;;;;5077106;28;20765;-67
2023/09/01 03:33:40;;;;;;;2.70;2.50;;;12.40;99.90;;;;;;5068354;28;20207;-66
2023/09/01 03:36:09;;;;;;;2.27;2.10;;;12.50;99.90;;;;;;5085825;28;20929;-66
2023/09/01 03:38:38;;;;;;;2.60;2.40;;;12.50;99.90;;;;;;5088142;28;20203;-66
2023/09/01 03:41:07;;;;;;;2.93;2.60;;;12.50;99.90;;;;;;5080111;28;20290;-66
2023/09/01 03:43:35;;;;;;;3.23;2.27;;;12.60;99.90;;;;;;5085930;28;20311;-66
2023/09/01 03:46:03;;;;;;;2.20;2.10;;;12.60;99.90;;;;;;5088057;28;20292;-67
2023/09/01 03:48:30;;;;;;;2.60;2.37;;;12.70;99.90;;;;;;5087692;28;20210;-67
2023/09/01 03:51:10;;;;;;;2.70;2.50;;;12.50;99.90;;;;;;5087962;28;20239;-67
2023/09/01 03:53:37;;;;;;;2.70;2.53;;;12.50;99.90;;;;;;5074936;28;20207;-67
2023/09/01 03:56:09;;;;;;;2.80;2.50;;;12.50;99.90;;;;;;5082828;28;20214;-67
2023/09/01 03:58:36;;;;;;;3.07;2.77;;;12.50;99.90;;;;;;5087707;28;20277;-66
2023/09/01 04:01:07;;;;;;;4.33;2.77;;;12.60;99.90;;;;;;5087159;28;20239;-67
2023/09/01 04:03:34;;;;;;;2.97;2.50;;;12.60;99.90;;;;;;5079760;28;20203;-67
2023/09/01 04:06:01;;;;;;;2.87;2.47;;;12.70;99.90;;;;;;5087430;28;20295;-66
2023/09/01 04:08:27;;;;;;;3.20;2.80;;;12.60;99.90;;;;;;5085408;28;20316;-66
2023/09/01 04:10:54;;;;;;;2.83;2.63;;;12.50;99.90;;;;;;5067138;28;20321;-66
2023/09/01 04:13:23;;;;;;;3.03;2.73;;;12.40;99.90;;;;;;5066298;28;20286;-66
2023/09/01 04:15:50;;;;;;;3.30;3.00;;;12.20;99.90;;;;;;5066281;28;20789;-67
2023/09/01 04:18:17;;;;;;;3.67;3.30;;;12.10;99.90;;;;;;5100698;28;20241;-66
2023/09/01 04:20:48;;;;;;;3.17;2.87;;;12.00;99.90;;;;;;5107319;28;20213;-66
2023/09/01 04:23:15;;;;;;;3.10;2.90;;;11.90;99.90;;;;;;5107282;28;20195;-66
2023/09/01 04:25:44;;;;;;;4.23;3.17;;;11.90;99.90;;;;;;5106992;28;20208;-66
2023/09/01 04:28:11;;;;;;;3.20;2.90;;;11.80;99.90;;;;;;5107129;28;20691;-66
2023/09/01 04:30:40;;;;;;;4.23;3.00;;;11.80;99.90;;;;;;5102577;28;20262;-66
2023/09/01 04:33:07;;;;;;;3.40;3.17;;;11.90;99.90;;;;;;5087037;28;20310;-67
2023/09/01 04:35:34;;;;;;;5.17;3.07;;;11.90;99.90;;;;;;5086726;28;20689;-66
2023/09/01 04:38:02;;;;;;;4.00;3.20;;;11.80;99.90;;;;;;5086794;28;20206;-66
2023/09/01 04:40:30;;;;;;;3.47;3.27;;;12.00;99.90;;;;;;5106317;28;20202;-66
2023/09/01 04:42:57;;;;;;;4.03;3.43;;;12.00;99.90;;;;;;5092621;27;20737;-67
2023/09/01 04:45:24;;;;;;;4.60;3.50;;;12.00;99.90;;;;;;5066571;28;20208;-66
2023/09/01 04:47:53;;;;;;;5.10;3.63;;;12.10;99.90;;;;;;5066360;28;20322;-66
2023/09/01 04:50:20;;;;;;;4.30;3.20;;;12.10;99.90;;;;;;5066391;28;20314;-66
2023/09/01 04:52:47;;;;;;;3.50;3.30;;;12.00;99.90;;;;;;5066332;28;20246;-67
2023/09/01 04:55:14;;;;;;;4.30;3.97;;;11.90;99.90;;;;;;5066438;28;20306;-66
2023/09/01 04:57:41;;;;;;;3.77;3.57;;;12.00;99.90;;;;;;5065876;28;20700;-66
2023/09/01 05:00:15;;;;;;;3.30;3.10;;;12.00;99.90;;;;;;5065209;28;20326;-66
2023/09/01 05:02:43;;;;;;;3.47;3.27;;;12.00;99.90;;;;;;5072041;28;20286;-66
2023/09/01 05:05:12;;;;;;;3.40;3.13;;;12.10;99.90;;;;;;5086124;28;20561;-66
2023/09/01 05:07:39;;;;;;;3.43;3.10;;;12.10;99.90;;;;;;5085705;28;20242;-66
2023/09/01 05:10:08;;;;;;;3.47;3.27;;;12.10;99.90;;;;;;5086074;28;20323;-67
2023/09/01 05:12:35;;;;;;;3.33;3.10;;;12.00;99.90;;;;;;5085808;28;20211;-66
2023/09/01 05:15:02;;;;;;;4.13;3.43;;;12.10;99.90;;;;;;5085891;28;20974;-66
2023/09/01 05:17:29;;;;;;;6.70;3.40;;;12.00;99.90;;;;;;5095945;28;20834;-66
2023/09/01 05:19:57;;;;;;;3.63;3.30;;;11.90;99.90;;;;;;5105929;28;20209;-66
2023/09/01 05:22:25;;;;;;;3.13;2.93;;;11.90;99.90;;;;;;5106079;28;20294;-66
2023/09/01 05:24:53;;;;;;;3.53;3.17;;;12.00;99.90;;;;;;5089281;28;20286;-66
2023/09/01 05:27:20;;;;;;;3.20;3.00;;;12.00;99.90;;;;;;5085126;28;20811;-66
2023/09/01 05:29:47;;;;;;;3.73;3.47;;;12.00;99.90;;;;;;5065611;28;20314;-66
2023/09/01 05:32:15;;;;;;;4.03;3.67;;;12.00;99.90;;;;;;5065223;28;20227;-66
2023/09/01 05:34:43;;;;;;;3.57;3.30;;;12.00;99.90;;;;;;5065228;28;20578;-66
2023/09/01 05:37:11;;;;;;;3.67;2.83;;;12.00;99.90;;;;;;5065170;28;20211;-66
2023/09/01 05:39:40;;;;;;;3.20;3.00;;;12.10;99.90;;;;;;5066001;28;20207;-66
2023/09/01 05:42:08;;;;;;;4.53;3.20;;;12.10;99.90;;;;;;5065283;28;20473;-66
2023/09/01 05:44:35;;;;;;;3.23;2.90;;;12.20;99.90;;;;;;5064876;28;20327;-66
2023/09/01 05:47:03;;;;;;;3.03;2.73;;;12.20;99.90;;;;;;5077982;28;20218;-66
2023/09/01 05:49:31;;;;;;;3.27;3.07;;;12.30;99.90;;;;;;5105597;28;21039;-66
2023/09/01 05:51:58;;;;;;;3.10;2.90;;;12.30;99.90;;;;;;5105115;28;20331;-67
2023/09/01 05:54:25;;;;;;;3.97;3.30;;;12.30;99.90;;;;;;5105001;28;20214;-66
2023/09/01 05:56:54;;;;;;;3.87;3.00;;;12.40;99.90;;;;;;5105710;28;20211;-66
2023/09/01 05:59:21;;;;;;;2.90;2.70;;;12.40;99.90;;;;;;5095471;28;20201;-67
2023/09/01 06:01:48;;;;;;;3.77;3.47;;;12.40;99.90;;;;;;5085041;28;20207;-66
2023/09/01 06:04:15;;;;;;;3.50;3.20;;;12.50;99.90;;;;;;5085275;28;20261;-66
2023/09/01 06:06:42;;;;;;;3.60;3.30;;;12.50;99.90;;;;;;5084833;28;20238;-66
2023/09/01 06:09:09;;;;;;;3.43;3.20;;;12.60;99.90;;;;;;5085102;28;20294;-66
2023/09/01 06:11:37;;;;;;;3.40;3.10;;;12.60;99.90;;;;;;5084983;28;20287;-66
2023/09/01 06:14:05;;;;;;;3.07;2.97;;;12.70;99.90;;;;;;5085447;28;20668;-66
2023/09/01 06:16:32;;;;;;;6.27;2.97;;;12.70;99.90;;;;;;5087767;28;20249;-66
2023/09/01 06:19:00;;;;;;;3.77;3.40;;;12.80;99.90;;;;;;5104879;28;20337;-67
2023/09/01 06:21:27;;;;;;;4.13;3.53;;;12.80;99.90;;;;;;5105129;28;20210;-66
2023/09/01 06:23:54;;;;;;;3.60;3.30;;;12.90;99.90;;;;;;5086842;28;20203;-66
2023/09/01 06:26:21;;;;;;;3.93;3.47;;;13.00;99.90;;;;;;5064896;28;20298;-66
2023/09/01 06:28:49;;;;;;;4.20;3.23;;;13.00;99.90;;;;;;5064529;28;20780;-67
2023/09/01 06:31:17;;;;;;;3.30;3.07;;;13.10;99.90;;;;;;5065212;28;20330;-67
2023/09/01 06:33:46;;;;;;;3.60;3.10;;;13.10;99.90;;;;;;5064597;28;20303;-66
2023/09/01 06:36:14;;;;;;;3.37;3.10;;;13.20;99.90;;;;;;5078168;28;20207;-66
2023/09/01 06:38:41;;;;;;;3.60;3.30;;;13.20;99.90;;;;;;5080082;28;20696;-66
2023/09/01 06:41:08;;;;;;;3.03;2.93;;;13.30;99.90;;;;;;5064621;28;20215;-66
2023/09/01 06:43:35;;;;;;;3.60;3.33;;;13.30;99.90;;;;;;5064606;28;20318;-66
2023/09/01 06:46:02;;;;;;;3.67;3.33;;;13.40;99.90;;;;;;5064552;28;20302;-67
2023/09/01 06:48:31;;;;;;;3.63;3.33;;;13.50;99.90;;;;;;5066317;28;20207;-66
2023/09/01 06:51:00;;;;;;;3.53;3.23;;;13.50;99.90;;;;;;5084432;28;20227;-67
2023/09/01 06:53:27;;;;;;;3.67;3.47;;;13.60;99.90;;;;;;5084670;28;20210;-66
2023/09/01 06:55:54;;;;;;;4.17;3.77;;;13.60;99.90;;;;;;5084356;28;20231;-66
2023/09/01 06:58:21;;;;;;;4.03;3.40;;;13.70;99.90;;;;;;5083944;28;20302;-66
2023/09/01 07:00:51;;;;;;;4.70;3.80;;;13.80;99.90;;;;;;5084106;28;20679;-67
2023/09/01 07:03:18;;;;;;;4.37;3.70;;;13.80;99.90;;;;;;5084259;28;20703;-66
2023/09/01 07:05:54;;;;;;;4.17;3.73;;;13.90;99.90;;;;;;5084730;28;20206;-66
2023/09/01 07:08:21;;;;;;;4.70;3.50;;;14.00;99.90;;;;;;5084312;28;20201;-67
2023/09/01 07:10:48;;;;;;;5.40;3.93;;;14.10;99.90;;;;;;5084483;28;20335;-66
2023/09/01 07:13:15;;;;;;;5.10;3.87;;;14.20;99.90;;;;;;5084872;28;20225;-66
2023/09/01 07:15:47;;;;;;;4.03;3.53;;;14.20;99.90;;;;;;5083740;28;20230;-67
2023/09/01 07:18:14;;;;;;;4.27;3.87;;;14.30;99.90;;;;;;5067646;28;20704;-67
2023/09/01 07:20:41;;;;;;;4.27;3.93;;;14.30;99.90;;;;;;5068318;28;20738;-66
2023/09/01 07:23:09;;;;;;;4.90;3.80;;;14.40;99.90;;;;;;5066475;28;20327;-66
2023/09/01 07:25:36;;;;;;;4.30;3.87;;;14.50;99.90;;;;;;5068344;28;20272;-66
2023/09/01 07:28:03;;;;;;;4.50;4.07;;;14.60;99.90;;;;;;5067835;28;20616;-67
2023/09/01 07:30:32;;;;;;;4.23;3.93;;;14.60;99.90;;;;;;5067924;28;20277;-67
2023/09/01 07:32:59;;;;;;;4.00;3.70;;;14.60;99.90;;;;;;5085755;28;20211;-67
2023/09/01 07:35:26;;;;;;;4.87;4.17;;;14.60;99.90;;;;;;5087621;28;20749;-66
2023/09/01 07:37:53;;;;;;;5.27;4.10;;;14.70;99.90;;;;;;5087633;28;20231;-67
2023/09/01 07:40:21;;;;;;;5.07;3.90;;;14.70;99.90;;;;;;5087792;28;20293;-66
2023/09/01 07:42:48;;;;;;;7.40;3.97;;;14.80;99.90;;;;;;5087509;28;20268;-66
2023/09/01 07:45:15;;;;;;;5.30;3.90;;;14.90;99.90;;;;;;5087213;28;20314;-66
2023/09/01 07:47:43;;;;;;;4.57;4.13;;;14.90;99.90;;;;;;5087149;28;20297;-66
2023/09/01 07:50:10;;;;;;;6.10;4.27;;;15.10;99.90;;;;;;5087078;28;20610;-67
2023/09/01 07:52:37;;;;;;;4.53;4.00;;;15.10;99.90;;;;;;5086912;28;20234;-66
2023/09/01 07:55:05;;;;;;;4.57;4.17;;;15.20;99.90;;;;;;5087522;28;20256;-67
2023/09/01 07:57:34;;;;;;;5.83;4.20;;;15.30;99.90;;;;;;5087472;28;20567;-66
2023/09/01 08:00:05;;;;;;;5.60;4.63;;;15.40;99.90;;;;;;5087154;28;20234;-67
2023/09/01 08:02:32;;;;;;;8.00;4.57;;;15.40;99.90;;;;;;5087047;28;20245;-66
2023/09/01 08:04:59;;;;;;;4.60;4.20;;;15.50;99.90;;;;;;5087493;28;20235;-67
2023/09/01 08:07:26;;;;;;;5.30;4.23;;;15.50;99.90;;;;;;5086826;28;20251;-66
2023/09/01 08:09:53;;;;;;;4.63;4.10;;;15.40;99.90;;;;;;5087085;28;20203;-67
2023/09/01 08:12:19;;;;;;;6.43;4.27;;;15.60;99.90;;;;;;5087140;28;20752;-67
2023/09/01 08:14:48;;;;;;;5.77;4.37;;;15.80;99.90;;;;;;5087522;28;20202;-66
2023/09/01 08:17:15;;;;;;;4.07;3.77;;;15.80;99.90;;;;;;5095325;28;20325;-67
2023/09/01 08:19:42;;;;;;;7.53;4.20;;;15.90;99.90;;;;;;5107589;28;20210;-67
2023/09/01 08:22:09;;;;;;;4.20;3.73;;;15.90;99.90;;;;;;5108021;28;20247;-67
2023/09/01 08:24:36;;;;;;;4.33;3.60;;;16.00;99.90;;;;;;5107770;28;20202;-67
2023/09/01 08:27:03;;;;;;;3.70;3.40;;;16.10;99.90;;;;;;5107759;28;20202;-67
2023/09/01 08:29:31;;;;;;;4.80;3.10;;;16.10;99.90;;;;;;5087385;28;20221;-66
2023/09/01 08:32:01;;;;;;;10.73;3.50;;;16.30;99.90;;;;;;5080279;28;20238;-67
2023/09/01 08:34:28;;;;;;;4.97;3.40;;;16.40;99.90;;;;;;5087105;28;20309;-67
2023/09/01 08:36:55;;;;;;;4.30;3.23;;;16.50;99.90;;;;;;5086932;28;20293;-67
2023/09/01 08:39:22;;;;;;;5.27;3.50;;;16.60;99.90;;;;;;5086711;28;20290;-67
2023/09/01 08:41:50;;;;;;;8.00;3.60;;;16.60;99.90;;;;;;5086698;28;20203;-67
2023/09/01 08:44:20;;;;;;;4.03;3.63;;;16.60;99.90;;;;;;5087064;28;20211;-67
2023/09/01 08:46:48;;;;;;;4.97;4.40;;;16.70;99.90;;;;;;5091161;28;20671;-66
2023/09/01 08:49:17;;;;;;;4.03;3.30;;;16.70;99.90;;;;;;5087963;28;20301;-67
2023/09/01 08:51:47;;;;;;;4.97;3.20;;;16.80;99.90;;;;;;5066255;28;20239;-67
2023/09/01 08:54:17;;;;;;;6.03;3.53;;;16.90;99.90;;;;;;5066007;28;20253;-66
2023/09/01 08:56:44;;;;;;;5.23;3.43;;;16.90;99.90;;;;;;5065792;28;20262;-67
2023/09/01 08:59:11;;;;;;;5.10;3.40;;;17.00;99.90;;;;;;5066069;28;20626;-66
2023/09/01 09:01:38;;;;;;;3.80;3.50;;;17.10;99.90;;;;;;5065567;28;20239;-66
2023/09/01 09:04:05;;;;;;;4.57;3.17;;;17.30;99.90;;;;;;5065847;28;20211;-67
2023/09/01 09:06:35;;;;;;;3.60;3.03;;;17.30;99.90;;;;;;5065978;28;20220;-67
2023/09/01 09:09:07;;;;;;;3.67;3.17;;;17.30;99.90;;;;;;5065550;28;20603;-67
2023/09/01 09:11:34;;;;;;;4.27;3.23;;;17.30;99.90;;;;;;5066927;28;20701;-67
2023/09/01 09:14:02;;;;;;;2.83;2.53;;;17.40;99.90;;;;;;5085377;28;20210;-67
2023/09/01 09:16:29;;;;;;;3.30;2.93;;;17.40;99.90;;;;;;5083754;28;20261;-65
2023/09/01 09:18:55;;;;;;;4.73;2.63;;;17.50;99.90;;;;;;5064998;28;20273;-65
2023/09/01 09:21:25;;;;;;;2.73;2.40;;;17.50;99.90;;;;;;5065729;28;20214;-65
2023/09/01 09:23:54;;;;;;;3.00;2.63;;;17.70;99.90;;;;;;5069052;28;20570;-65
2023/09/01 09:26:25;;;;;;;4.73;2.40;;;17.70;99.90;;;;;;5085568;28;20923;-65
2023/09/01 09:28:52;;;;;;;7.60;2.70;;;17.80;99.90;;;;;;5101565;28;20198;-65
2023/09/01 09:31:29;;;;;;;3.23;2.10;;;17.90;99.90;;;;;;5093519;28;20206;-65
2023/09/01 09:33:56;;;;;;;3.37;2.50;;;18.10;99.90;;;;;;5085482;28;20255;-65
2023/09/01 09:36:33;;;;;;;4.53;2.67;;;18.20;99.90;;;;;;5085733;28;20324;-65
2023/09/01 09:39:02;;;;;;;5.03;2.40;;;18.20;99.90;;;;;;5085306;28;20194;-66
2023/09/01 09:41:45;;;;;;;3.63;2.30;;;18.30;99.90;;;;;;5085739;28;20264;-66
2023/09/01 09:44:12;;;;;;;2.83;2.60;;;18.40;99.90;;;;;;5085472;28;20582;-66
2023/09/01 09:46:44;;;;;;;4.10;2.20;;;18.50;99.90;;;;;;5084746;28;20298;-67
2023/09/01 09:49:12;;;;;;;2.77;2.47;;;18.50;99.90;;;;;;5085260;28;20242;-66
2023/09/01 09:51:40;;;;;;;3.13;2.30;;;18.60;99.90;;;;;;5084716;28;20342;-66
2023/09/01 09:54:11;;;;;;;6.33;2.00;;;18.60;99.90;;;;;;5085020;28;20668;-66
2023/09/01 09:56:39;;;;;;;3.90;1.80;;;18.60;99.90;;;;;;5085132;28;20277;-66
2023/09/01 09:59:06;;;;;;;2.53;1.80;;;18.60;99.90;;;;;;5084994;28;20213;-66
2023/09/01 10:01:39;;;;;;;5.40;2.37;;;18.60;99.90;;;;;;5084591;28;20712;-66
2023/09/01 10:04:06;;;;;;;2.47;2.10;;;18.80;99.90;;;;;;5084941;28;20245;-66
2023/09/01 10:06:35;;;;;;;3.50;1.70;;;18.90;99.90;;;;;;5084782;28;20250;-66
2023/09/01 10:09:04;;;;;;;2.27;1.70;;;19.00;99.90;;;;;;5080002;28;20273;-66
2023/09/01 10:11:33;;;;;;;4.30;2.13;;;19.00;99.90;;;;;;5063982;28;20690;-66
2023/09/01 10:14:01;;;;;;;2.73;1.43;;;19.00;99.90;;;;;;5063666;28;20219;-66
2023/09/01 10:16:29;;;;;;;2.37;1.80;;;19.00;99.90;;;;;;5067743;28;20315;-66
2023/09/01 10:18:56;;;;;;;3.07;1.97;;;19.00;99.90;;;;;;5104523;28;20609;-66
2023/09/01 10:21:23;;;;;;;3.17;2.20;;;19.10;99.90;;;;;;5075631;28;20214;-66
2023/09/01 10:23:50;;;;;;;5.27;2.20;;;19.20;99.90;;;;;;5071894;28;20285;-66
2023/09/01 10:26:24;;;;;;;2.67;2.00;;;19.20;99.90;;;;;;5084555;28;20278;-66
2023/09/01 10:28:57;;;;;;;3.10;1.70;;;19.10;99.90;;;;;;5084615;28;20221;-67
2023/09/01 10:31:24;;;;;;;4.07;1.73;;;19.10;99.90;;;;;;5084578;28;20191;-66
2023/09/01 10:34:12;;;;;;;5.27;2.17;;;19.10;99.90;;;;;;5084628;28;20241;-66
2023/09/01 10:36:40;;;;;;;3.43;2.40;;;19.20;99.90;;;;;;5084576;28;20198;-67
2023/09/01 10:39:30;;;;;;;3.43;2.10;;;19.40;99.90;;;;;;5084207;28;20706;-67
2023/09/01 10:41:59;;;;;;;5.70;2.40;;;19.50;99.90;;;;;;5060796;28;20219;-66
2023/09/01 10:45:06;;;;;;;3.23;2.00;;;19.50;99.90;;;;;;5084762;28;20217;-66
2023/09/01 10:47:45;;;;;;;3.07;1.83;;;19.50;99.90;;;;;;5081649;28;20586;-66
2023/09/01 10:50:13;;;;;;;2.80;2.00;;;19.50;99.90;;;;;;5104716;28;20264;-66
2023/09/01 10:52:41;;;;;;;3.53;2.20;;;19.60;99.90;;;;;;5104146;28;21051;-66
2023/09/01 10:55:09;;;;;;;3.00;2.30;;;19.70;99.90;;;;;;5105030;28;20292;-69
2023/09/01 10:57:41;;;;;;;3.80;2.20;;;19.70;99.90;;;;;;5106309;28;20206;-67
2023/09/01 11:00:29;;;;;;;6.13;2.23;;;19.70;99.90;;;;;;5109017;28;20249;-67
2023/09/01 11:03:29;;;;;;;2.40;2.00;;;19.50;99.90;;;;;;5108794;28;20319;-67
2023/09/01 11:05:57;;;;;;;2.50;1.80;;;19.50;99.90;;;;;;5078051;28;20316;-67
2023/09/01 11:08:25;;;;;;;4.17;1.90;;;19.60;99.90;;;;;;5067818;28;20203;-67
2023/09/01 11:10:55;;;;;;;2.23;2.00;;;19.70;99.90;;;;;;5068103;28;20207;-67
2023/09/01 11:13:24;;;;;;;4.40;2.50;;;19.80;99.90;;;;;;5068102;28;20485;-67
2023/09/01 11:15:52;;;;;;;3.03;2.10;;;19.80;99.90;;;;;;5068149;28;20223;-67
2023/09/01 11:18:21;;;;;;;3.83;1.87;;;19.80;99.90;;;;;;5102748;28;20316;-67
2023/09/01 11:20:49;;;;;;;7.87;2.17;;;19.80;99.90;;;;;;5108348;28;20251;-67
2023/09/01 11:23:20;;;;;;;2.73;1.80;;;19.70;99.90;;;;;;5104874;28;20201;-67
2023/09/01 11:25:48;;;;;;;1.93;1.70;;;19.80;99.90;;;;;;5087480;28;20191;-67
2023/09/01 11:28:15;;;;;;;2.00;1.63;;;20.00;99.90;;;;;;5098620;28;20288;-67
2023/09/01 11:30:53;;;;;;;2.57;2.33;;;20.10;99.90;;;;;;5101018;28;20677;-67
2023/09/01 11:33:21;;;;;;;4.47;1.93;;;20.30;99.90;;;;;;5087459;28;20587;-67
2023/09/01 11:35:49;;;;;;;3.80;1.97;;;20.30;99.90;;;;;;5087379;28;20209;-67
2023/09/01 11:38:19;;;;;;;2.43;1.67;;;20.20;99.90;;;;;;5087206;28;20289;-67
2023/09/01 11:40:47;;;;;;;3.20;2.10;;;20.20;99.90;;;;;;5087418;28;20810;-67
2023/09/01 11:43:14;;;;;;;5.33;2.13;;;20.10;99.90;;;;;;5087552;28;20213;-67
2023/09/01 11:45:48;;;;;;;3.50;1.90;;;20.00;99.90;;;;;;5087207;28;20202;-67
2023/09/01 11:48:23;;;;;;;3.57;2.27;;;20.10;99.90;;;;;;5104047;28;21038;-67
2023/09/01 11:50:50;;;;;;;3.47;2.00;;;20.20;99.90;;;;;;5107918;28;20213;-67
2023/09/01 11:53:27;;;;;;;4.20;2.20;;;20.60;99.90;;;;;;5107670;28;20352;-67
2023/09/01 11:55:58;;;;;;;6.53;2.20;;;20.80;99.90;;;;;;5107581;28;20767;-67
2023/09/01 11:58:25;;;;;;;3.63;2.60;;;21.00;99.90;;;;;;5107398;28;20194;-67
2023/09/01 12:00:52;;;;;;;2.50;2.13;;;21.20;99.90;;;;;;5098916;28;20291;-67
2023/09/01 12:03:23;;;;;;;2.97;2.30;;;21.10;99.90;;;;;;5067363;28;20294;-67
2023/09/01 12:05:50;;;;;;;3.33;2.30;;;20.90;99.90;;;;;;5067147;28;20196;-67
2023/09/01 12:08:17;;;;;;;3.13;2.27;;;20.80;99.90;;;;;;5066062;28;20733;-67
2023/09/01 12:10:44;;;;;;;2.23;2.03;;;20.80;99.90;;;;;;5066345;28;20782;-67
2023/09/01 12:13:12;;;;;;;3.07;2.23;;;20.80;99.90;;;;;;5075219;28;20669;-67
2023/09/01 12:15:59;;;;;;;4.03;2.30;;;20.90;99.90;;;;;;5086742;28;20369;-67
2023/09/01 12:18:36;;;;;;;2.43;1.80;;;20.90;99.90;;;;;;5105077;28;20213;-67
2023/09/01 12:21:04;;;;;;;3.27;2.10;;;20.90;99.90;;;;;;5107135;28;20251;-67
2023/09/01 12:23:33;;;;;;;2.50;2.17;;;21.10;99.90;;;;;;5101630;28;20231;-67
2023/09/01 12:26:01;;;;;;;4.73;2.03;;;21.20;99.90;;;;;;5086186;28;20769;-68
2023/09/01 12:28:29;;;;;;;2.00;1.87;;;21.50;99.90;;;;;;5086608;28;20649;-67
2023/09/01 12:30:56;;;;;;;3.17;2.10;;;21.70;99.90;;;;;;5086514;28;20306;-65
2023/09/01 12:33:24;;;;;;;3.07;1.93;;;21.80;99.90;;;;;;5086363;28;20235;-66
2023/09/01 12:35:52;;;;;;;3.33;2.13;;;21.80;99.90;;;;;;5072783;28;20759;-65
2023/09/01 12:38:19;;;;;;;2.78;2.00;;;21.70;99.90;;;;;;5066040;28;20856;-65
2023/09/01 12:40:47;;;;;;;3.73;2.00;;;21.80;99.90;;;;;;5066036;28;20302;-67
2023/09/01 12:43:14;;;;;;;4.23;2.30;;;22.00;99.90;;;;;;5066370;28;20730;-67
2023/09/01 12:45:41;;;;;;;2.30;2.10;;;22.10;99.90;;;;;;5066131;28;20207;-65
2023/09/01 12:48:08;;;;;;;3.83;2.20;;;22.20;99.90;;;;;;5097650;28;20209;-65
2023/09/01 12:50:34;;;;;;;3.78;2.22;;;22.40;99.90;;;;;;5106676;28;20324;-65
2023/09/01 12:53:03;;;;;;;2.55;2.20;;;22.30;99.90;;;;;;5106092;28;20237;-65
2023/09/01 12:55:30;;;;;;;4.25;2.17;;;22.40;99.90;;;;;;5105963;28;20313;-65